Time;durP1;ratioP1;P1;durP2;ratioP2;P2;SDS_P1;SDS_P2;PMS_P1;PMS_P2;Temp;Humidity;BMP_temperature;BMP_pressure;BME280_temperature;BME280_humidity;BME280_pressure;Samples;Min_cycle;Max_cycle;Signal;HPM_P1;HPM_P2
2023/12/26 00:05:51;;;;;;;53.25;47.88;;;10.20;86.10;;;;;;12656864;28;20035;-73
2023/12/26 00:11:55;;;;;;;62.80;57.23;;;10.30;85.90;;;;;;12655791;28;20044;-73
2023/12/26 00:17:56;;;;;;;54.10;49.03;;;10.30;85.80;;;;;;12656388;28;20032;-73
2023/12/26 00:23:58;;;;;;;68.65;62.33;;;10.00;86.00;;;;;;12656105;28;20349;-73
2023/12/26 00:29:59;;;;;;;66.57;60.28;;;10.00;86.20;;;;;;12655782;28;20042;-73
2023/12/26 00:36:01;;;;;;;57.00;51.28;;;10.20;86.10;;;;;;12655592;28;20024;-73
2023/12/26 00:42:03;;;;;;;51.70;46.33;;;10.10;85.80;;;;;;12654199;28;20039;-71
2023/12/26 00:48:05;;;;;;;59.42;52.80;;;9.80;86.10;;;;;;12654156;28;20248;-71
2023/12/26 00:54:07;;;;;;;65.93;60.60;;;10.00;86.30;;;;;;12654775;28;20043;-71
2023/12/26 01:00:09;;;;;;;76.38;70.60;;;10.00;86.00;;;;;;12636572;28;20040;-71
2023/12/26 01:06:11;;;;;;;83.10;76.90;;;9.70;86.10;;;;;;12636592;28;20035;-71
2023/12/26 01:12:13;;;;;;;58.60;53.15;;;9.80;86.50;;;;;;12654184;28;20035;-71
2023/12/26 01:18:15;;;;;;;80.00;73.38;;;9.80;86.30;;;;;;12654814;28;20336;-71
2023/12/26 01:24:16;;;;;;;59.92;54.65;;;9.80;86.40;;;;;;12653941;28;20086;-71
2023/12/26 01:30:19;;;;;;;93.53;86.72;;;9.90;86.30;;;;;;12652501;28;20051;-71
2023/12/26 01:36:20;;;;;;;82.68;76.40;;;10.00;86.20;;;;;;12652453;28;20433;-71
2023/12/26 01:42:22;;;;;;;52.47;47.67;;;9.90;86.20;;;;;;12653557;28;20475;-70
2023/12/26 01:48:24;;;;;;;54.95;50.05;;;9.90;86.40;;;;;;12652228;28;20035;-71
2023/12/26 01:54:30;;;;;;;94.45;87.47;;;10.00;86.20;;;;;;12653216;28;20063;-71
2023/12/26 02:00:32;;;;;;;67.38;61.28;;;10.10;86.10;;;;;;12653001;28;20039;-71
2023/12/26 02:06:35;;;;;;;75.07;68.68;;;10.20;86.10;;;;;;12653000;28;20094;-71
2023/12/26 02:12:41;;;;;;;71.60;65.10;;;10.20;86.10;;;;;;12651600;28;20352;-70
2023/12/26 02:18:43;;;;;;;65.80;60.30;;;10.30;86.10;;;;;;12661618;28;20029;-71
2023/12/26 02:24:47;;;;;;;76.03;70.05;;;10.30;86.30;;;;;;12660636;28;20032;-71
2023/12/26 02:30:50;;;;;;;59.70;54.70;;;10.20;86.10;;;;;;12661488;28;20063;-70
2023/12/26 02:36:51;;;;;;;53.05;47.65;;;10.20;86.10;;;;;;12660091;28;20035;-70
2023/12/26 02:42:54;;;;;;;50.20;45.42;;;10.00;86.40;;;;;;12660013;28;20051;-71
2023/12/26 02:48:56;;;;;;;54.28;48.63;;;10.00;86.30;;;;;;12659484;28;20039;-70
2023/12/26 02:54:57;;;;;;;66.60;61.72;;;9.80;86.40;;;;;;12660239;28;20032;-71
2023/12/26 03:00:59;;;;;;;42.20;38.15;;;9.70;86.60;;;;;;12658864;28;20376;-70
2023/12/26 03:07:01;;;;;;;53.97;48.55;;;9.60;86.60;;;;;;12660493;28;20050;-71
2023/12/26 03:13:02;;;;;;;49.55;44.72;;;9.60;86.90;;;;;;12659438;28;20062;-71
2023/12/26 03:19:04;;;;;;;42.90;38.45;;;9.70;86.70;;;;;;12659183;28;20036;-71
2023/12/26 03:25:07;;;;;;;50.55;45.63;;;9.70;86.60;;;;;;12657208;28;20032;-71
2023/12/26 03:31:09;;;;;;;84.10;76.88;;;9.70;86.80;;;;;;12657384;28;20043;-71
2023/12/26 03:37:10;;;;;;;75.57;69.72;;;9.70;86.60;;;;;;12658385;28;20024;-71
2023/12/26 03:43:45;;;;;;;50.95;45.78;;;9.90;86.70;;;;;;12656912;28;20356;-71
2023/12/26 03:49:54;;;;;;;64.88;59.78;;;9.90;86.50;;;;;;12657628;28;20082;-71
2023/12/26 03:55:56;;;;;;;80.50;73.80;;;9.70;86.50;;;;;;12656201;28;20047;-70
2023/12/26 04:02:01;;;;;;;55.58;49.70;;;9.80;86.80;;;;;;12657247;28;20028;-71
2023/12/26 04:08:04;;;;;;;45.92;41.15;;;9.90;86.50;;;;;;12647520;28;20036;-71
2023/12/26 04:14:06;;;;;;;51.45;46.42;;;10.10;86.70;;;;;;12655340;28;20035;-73
2023/12/26 04:20:08;;;;;;;61.75;55.58;;;10.10;86.50;;;;;;12655141;28;20047;-73
2023/12/26 04:26:12;;;;;;;52.05;46.60;;;10.20;86.40;;;;;;12655097;28;20036;-73
2023/12/26 04:32:13;;;;;;;83.30;76.55;;;10.20;86.20;;;;;;12654800;28;20051;-73
2023/12/26 04:38:15;;;;;;;54.28;48.45;;;10.30;86.40;;;;;;12653515;28;20024;-73
2023/12/26 04:44:17;;;;;;;63.35;57.50;;;10.20;86.20;;;;;;12637491;28;20040;-73
2023/12/26 04:50:18;;;;;;;80.13;73.85;;;10.10;86.80;;;;;;12655065;28;20349;-73
2023/12/26 04:56:21;;;;;;;72.65;66.22;;;10.50;86.80;;;;;;12653471;28;20043;-73
2023/12/26 05:02:22;;;;;;;87.47;79.75;;;10.40;86.20;;;;;;12654618;28;20035;-73
2023/12/26 05:08:24;;;;;;;92.10;85.03;;;10.60;86.40;;;;;;12636939;28;20317;-73
2023/12/26 05:14:26;;;;;;;112.95;104.28;;;10.80;86.00;;;;;;12652991;28;20047;-73
2023/12/26 05:20:27;;;;;;;78.82;72.80;;;10.70;86.10;;;;;;12654060;28;20047;-73
2023/12/26 05:26:29;;;;;;;88.93;82.50;;;10.70;85.80;;;;;;12652841;28;20352;-73
2023/12/26 05:32:31;;;;;;;81.47;74.80;;;10.30;86.10;;;;;;12653726;28;20043;-73
2023/12/26 05:38:36;;;;;;;79.15;72.88;;;10.10;86.60;;;;;;12652520;28;20032;-73
2023/12/26 05:44:39;;;;;;;80.85;73.90;;;10.40;86.60;;;;;;12652392;28;20349;-71
2023/12/26 05:50:41;;;;;;;84.88;77.53;;;10.70;86.50;;;;;;12656731;28;20352;-71
2023/12/26 05:56:46;;;;;;;83.97;77.65;;;10.80;86.00;;;;;;12662082;28;20059;-71
2023/12/26 06:02:47;;;;;;;112.00;103.55;;;10.70;86.20;;;;;;12661807;28;20039;-71
2023/12/26 06:08:50;;;;;;;79.70;73.32;;;11.00;86.10;;;;;;12661553;28;20043;-70
2023/12/26 06:14:52;;;;;;;90.10;83.18;;;10.80;85.50;;;;;;12661148;28;20036;-71
2023/12/26 06:20:54;;;;;;;94.35;87.25;;;10.70;86.30;;;;;;12660914;28;20463;-70
2023/12/26 06:26:56;;;;;;;79.32;73.55;;;10.90;86.10;;;;;;12660711;28;20032;-71
2023/12/26 06:32:57;;;;;;;71.07;65.10;;;10.60;86.10;;;;;;12660365;28;20050;-70
2023/12/26 06:39:00;;;;;;;72.72;67.00;;;10.30;86.50;;;;;;12660111;28;20436;-71
2023/12/26 06:45:02;;;;;;;84.57;77.20;;;10.50;86.60;;;;;;12659849;28;20036;-71
2023/12/26 06:51:05;;;;;;;75.30;69.60;;;10.30;86.40;;;;;;12659612;28;20036;-71
2023/12/26 06:57:15;;;;;;;84.22;77.30;;;10.70;86.60;;;;;;12665415;22;20440;-71
2023/12/26 07:03:17;;;;;;;82.68;76.80;;;10.60;86.30;;;;;;12640864;28;20437;-71
2023/12/26 07:09:20;;;;;;;88.65;81.63;;;10.70;86.10;;;;;;12643638;28;20097;-71
2023/12/26 07:15:22;;;;;;;97.05;89.65;;;10.70;86.30;;;;;;12659311;28;20035;-70
2023/12/26 07:21:24;;;;;;;97.93;90.57;;;10.90;86.20;;;;;;12624945;28;20040;-71
2023/12/26 07:27:25;;;;;;;82.97;76.15;;;11.00;85.60;;;;;;12658809;28;20032;-71
2023/12/26 07:33:27;;;;;;;103.00;94.55;;;11.00;85.60;;;;;;12640398;28;20035;-73
2023/12/26 07:39:29;;;;;;;88.85;82.03;;;10.90;85.90;;;;;;12658235;28;20028;-73
2023/12/26 07:45:31;;;;;;;83.15;77.07;;;11.10;85.70;;;;;;12657938;28;20031;-73
2023/12/26 07:51:33;;;;;;;87.82;80.80;;;11.00;85.30;;;;;;12623037;28;20455;-71
2023/12/26 07:57:34;;;;;;;66.88;61.00;;;10.90;85.80;;;;;;12657332;28;20028;-73
2023/12/26 08:03:36;;;;;;;95.32;87.90;;;11.00;85.70;;;;;;12638907;28;20032;-73
2023/12/26 08:09:38;;;;;;;85.28;78.70;;;10.90;85.70;;;;;;12656845;28;20028;-73
2023/12/26 08:15:40;;;;;;;83.15;76.82;;;10.70;85.90;;;;;;12638308;28;20040;-73
2023/12/26 08:21:41;;;;;;;97.82;90.05;;;10.50;86.20;;;;;;12639414;28;20028;-73
2023/12/26 08:27:43;;;;;;;99.22;92.20;;;10.60;86.60;;;;;;12655998;28;20039;-71
2023/12/26 08:33:45;;;;;;;73.05;66.32;;;10.50;86.20;;;;;;12655660;28;20028;-71
2023/12/26 08:39:46;;;;;;;78.63;71.60;;;10.30;86.50;;;;;;12655431;28;20031;-73
2023/12/26 08:45:48;;;;;;;82.22;75.00;;;10.30;86.70;;;;;;12644098;28;20024;-73
2023/12/26 08:51:50;;;;;;;77.07;70.97;;;10.50;86.60;;;;;;12669597;28;20368;-73
2023/12/26 08:57:52;;;;;;;96.90;89.60;;;10.50;86.60;;;;;;12705270;28;20024;-73
2023/12/26 09:03:53;;;;;;;90.28;83.78;;;10.30;86.70;;;;;;12686957;28;20032;-73
2023/12/26 09:09:55;;;;;;;68.60;62.50;;;10.30;86.70;;;;;;12686730;28;20325;-73
2023/12/26 09:15:59;;;;;;;71.32;64.15;;;10.20;86.90;;;;;;12650149;28;20036;-73
2023/12/26 09:22:00;;;;;;;67.85;62.45;;;10.20;86.80;;;;;;12653307;28;20032;-71
2023/12/26 09:28:02;;;;;;;113.10;104.88;;;10.40;87.00;;;;;;12644885;28;20031;-71
2023/12/26 09:34:04;;;;;;;132.43;123.45;;;10.50;86.70;;;;;;12653646;28;20360;-71
2023/12/26 09:40:11;;;;;;;96.38;89.28;;;10.70;86.90;;;;;;12653546;28;20032;-71
2023/12/26 09:46:13;;;;;;;99.05;90.95;;;10.80;86.70;;;;;;12653398;28;20031;-71
2023/12/26 09:52:15;;;;;;;94.32;87.22;;;11.00;86.70;;;;;;12635248;28;20032;-71
2023/12/26 09:58:17;;;;;;;92.40;84.38;;;10.80;86.40;;;;;;12653035;28;20032;-71
2023/12/26 10:04:20;;;;;;;82.75;76.85;;;10.70;87.00;;;;;;12652880;28;20035;-71
2023/12/26 10:10:22;;;;;;;69.13;63.00;;;10.80;86.80;;;;;;12634636;28;20035;-71
2023/12/26 10:16:24;;;;;;;80.22;72.35;;;10.70;86.90;;;;;;12634504;28;20036;-71
2023/12/26 10:22:26;;;;;;;108.40;100.68;;;10.70;86.80;;;;;;12652511;28;20051;-70
2023/12/26 10:28:27;;;;;;;104.07;96.88;;;10.70;87.10;;;;;;12653116;28;20043;-71
2023/12/26 10:34:29;;;;;;;102.45;94.72;;;10.90;87.10;;;;;;12652784;28;20344;-73
2023/12/26 10:40:33;;;;;;;85.72;79.03;;;10.80;86.80;;;;;;12642558;28;20345;-70
2023/12/26 10:46:35;;;;;;;87.32;80.45;;;10.90;87.10;;;;;;12642838;28;20032;-71
2023/12/26 10:59:08;;;;;;;77.57;70.18;;;10.90;87.10;;;;;;12439418;28;20049;-71
2023/12/26 13:53:09;;;;;;;93.95;86.53;;;10.80;87.80;;;;;;12653036;28;20028;-71
2023/12/26 13:59:48;;;;;;;97.15;89.32;;;11.00;87.90;;;;;;12652882;28;20032;-71
2023/12/26 14:06:28;;;;;;;83.27;75.97;;;11.20;87.70;;;;;;12653775;28;20381;-71
2023/12/26 14:13:08;;;;;;;87.43;80.38;;;11.40;87.60;;;;;;12657964;28;20043;-71
2023/12/26 14:19:09;;;;;;;73.35;67.63;;;11.50;87.50;;;;;;12643825;28;20029;-71
2023/12/26 14:25:11;;;;;;;88.60;82.13;;;11.30;87.40;;;;;;12643703;28;20028;-71
2023/12/26 14:31:50;;;;;;;68.65;62.10;;;11.20;87.60;;;;;;12661978;28;20027;-71
2023/12/26 14:38:30;;;;;;;77.65;70.22;;;11.20;87.70;;;;;;12604682;28;20104;-71
2023/12/26 14:44:31;;;;;;;95.57;88.83;;;11.20;87.80;;;;;;12604726;28;20452;-71
2023/12/26 14:50:33;;;;;;;66.90;60.92;;;11.30;87.60;;;;;;12604506;28;20032;-71
2023/12/26 14:57:12;;;;;;;83.38;75.78;;;11.40;87.70;;;;;;12610598;22;20397;-71
2023/12/26 15:03:25;;;;;;;63.65;57.42;;;11.50;87.50;;;;;;12603748;28;20035;-71
2023/12/26 15:09:27;;;;;;;68.32;61.20;;;11.70;87.30;;;;;;12603658;28;20036;-71
2023/12/26 15:15:29;;;;;;;72.05;65.05;;;11.50;87.40;;;;;;12653397;28;20028;-71
2023/12/26 15:21:31;;;;;;;76.18;66.72;;;11.50;87.40;;;;;;12634480;28;20432;-71
2023/12/26 15:27:33;;;;;;;64.95;57.58;;;11.50;87.40;;;;;;12655104;28;20043;-71
2023/12/26 15:33:35;;;;;;;72.63;63.47;;;11.60;87.30;;;;;;12634393;28;20036;-73
2023/12/26 15:39:36;;;;;;;64.45;57.55;;;11.60;87.20;;;;;;12655515;28;20020;-73
2023/12/26 15:45:50;;;;;;;73.30;64.18;;;11.50;87.20;;;;;;12657789;28;20032;-73
2023/12/26 15:51:52;;;;;;;77.95;70.07;;;11.60;87.20;;;;;;12657419;28;20040;-71
2023/12/26 15:57:54;;;;;;;70.20;63.17;;;11.60;87.30;;;;;;12656888;28;20046;-71
2023/12/26 16:03:56;;;;;;;63.92;57.35;;;11.60;87.10;;;;;;12627152;28;20025;-72
2023/12/26 16:09:58;;;;;;;67.72;60.30;;;11.60;87.00;;;;;;12566021;28;20032;-72
2023/12/26 16:16:00;;;;;;;70.85;63.33;;;11.60;87.10;;;;;;12600567;28;20043;-74
2023/12/26 16:22:01;;;;;;;74.18;66.82;;;11.50;87.10;;;;;;12582868;28;20048;-74
2023/12/26 16:28:04;;;;;;;69.68;62.45;;;11.40;87.30;;;;;;12617362;28;20020;-74
2023/12/26 16:34:06;;;;;;;74.05;67.15;;;11.40;87.20;;;;;;12655326;28;20031;-74
2023/12/26 16:40:08;;;;;;;72.88;65.88;;;11.50;86.90;;;;;;12655058;28;20032;-74
2023/12/26 16:46:10;;;;;;;75.80;68.32;;;11.50;87.10;;;;;;12630549;28;20051;-74
2023/12/26 16:52:12;;;;;;;78.65;70.47;;;11.40;87.00;;;;;;12598888;28;20472;-74
2023/12/26 16:58:14;;;;;;;100.97;79.70;;;11.50;87.10;;;;;;12598099;28;20036;-74
2023/12/26 17:04:15;;;;;;;89.15;67.25;;;11.50;86.90;;;;;;12598645;28;20024;-74
2023/12/26 17:10:17;;;;;;;79.82;71.15;;;11.50;87.00;;;;;;12597979;28;20036;-74
2023/12/26 17:16:19;;;;;;;93.68;79.88;;;11.50;87.10;;;;;;12600785;28;20028;-74
2023/12/26 17:22:23;;;;;;;103.28;93.18;;;11.20;86.90;;;;;;12603974;28;20028;-74
2023/12/26 17:28:25;;;;;;;124.20;113.32;;;11.20;87.30;;;;;;12603740;28;20035;-74
2023/12/26 17:34:27;;;;;;;140.02;128.80;;;11.00;87.20;;;;;;12603597;28;20036;-74
2023/12/26 17:40:29;;;;;;;139.82;127.13;;;10.90;87.50;;;;;;12603460;28;20430;-74
2023/12/26 17:46:30;;;;;;;101.45;91.03;;;10.90;87.60;;;;;;12607503;28;20440;-74
2023/12/26 17:52:32;;;;;;;116.40;106.20;;;11.20;87.50;;;;;;12613138;28;20043;-74
2023/12/26 17:58:35;;;;;;;108.60;98.75;;;11.00;87.10;;;;;;12613489;28;20035;-74
2023/12/26 18:04:37;;;;;;;125.65;114.35;;;11.00;87.50;;;;;;12612726;28;20038;-74
2023/12/26 18:10:39;;;;;;;126.38;115.50;;;10.90;87.40;;;;;;12636143;28;20364;-74
2023/12/26 18:16:41;;;;;;;117.97;107.90;;;11.00;87.70;;;;;;12644549;28;20360;-74
2023/12/26 18:22:43;;;;;;;156.75;144.68;;;10.90;87.30;;;;;;12662593;28;20036;-74
2023/12/26 18:28:44;;;;;;;108.15;98.93;;;10.90;87.60;;;;;;12662369;28;20345;-74
2023/12/26 18:34:46;;;;;;;101.95;91.60;;;11.10;87.60;;;;;;12662007;28;20032;-74
2023/12/26 18:40:48;;;;;;;116.97;106.30;;;11.10;87.40;;;;;;12642961;28;20027;-74
2023/12/26 18:46:50;;;;;;;107.15;96.47;;;11.20;87.40;;;;;;12661638;28;20028;-71
2023/12/26 18:52:52;;;;;;;139.77;128.60;;;11.20;87.60;;;;;;12643301;28;20054;-72
2023/12/26 18:58:57;;;;;;;91.38;82.22;;;11.30;87.40;;;;;;12659766;28;20329;-72
2023/12/26 19:04:59;;;;;;;82.47;74.40;;;11.30;87.30;;;;;;12660675;28;20369;-71
2023/12/26 19:11:01;;;;;;;130.48;119.47;;;11.10;87.00;;;;;;12625240;28;20443;-71
2023/12/26 19:17:03;;;;;;;96.30;86.70;;;10.80;87.30;;;;;;12642051;28;20032;-71
2023/12/26 19:23:05;;;;;;;126.72;115.80;;;10.90;87.40;;;;;;12659359;28;20035;-72
2023/12/26 19:29:07;;;;;;;130.07;119.80;;;10.90;87.40;;;;;;12624467;28;20094;-71
2023/12/26 19:35:09;;;;;;;151.90;138.93;;;11.00;87.40;;;;;;12659375;28;20031;-74
2023/12/26 19:41:11;;;;;;;158.73;147.05;;;10.90;87.40;;;;;;12658451;28;20017;-74
2023/12/26 19:47:12;;;;;;;162.35;150.27;;;10.80;87.20;;;;;;12624374;28;20063;-74
2023/12/26 19:53:14;;;;;;;107.72;97.72;;;10.60;87.30;;;;;;12657770;28;20039;-74
2023/12/26 19:59:18;;;;;;;133.95;124.30;;;10.50;87.50;;;;;;12657515;28;20032;-74
2023/12/26 20:05:20;;;;;;;135.10;124.70;;;10.60;87.40;;;;;;12657310;28;20035;-74
2023/12/26 20:11:23;;;;;;;140.30;129.52;;;10.70;87.10;;;;;;12656526;28;20449;-74
2023/12/26 20:17:35;;;;;;;119.72;110.10;;;10.60;87.10;;;;;;12656716;28;20028;-74
2023/12/26 20:23:43;;;;;;;127.72;118.07;;;10.60;86.90;;;;;;12638362;28;20032;-74
2023/12/26 20:29:48;;;;;;;134.88;124.55;;;10.50;87.00;;;;;;12656156;28;20348;-74
2023/12/26 20:35:50;;;;;;;94.00;85.70;;;10.40;86.90;;;;;;12655936;28;20031;-74
2023/12/26 20:41:54;;;;;;;96.10;87.13;;;10.40;86.70;;;;;;12655636;28;20436;-74
2023/12/26 20:47:56;;;;;;;109.55;100.95;;;10.30;86.70;;;;;;12655177;28;20031;-73
2023/12/26 20:53:58;;;;;;;122.55;112.78;;;10.30;86.60;;;;;;12654998;28;20028;-74
2023/12/26 21:00:00;;;;;;;100.80;92.72;;;10.40;86.60;;;;;;12636815;28;20459;-74
2023/12/26 21:06:01;;;;;;;88.82;81.55;;;10.20;86.60;;;;;;12654648;28;20421;-74
2023/12/26 21:12:04;;;;;;;118.88;109.93;;;10.10;86.70;;;;;;12654621;28;20054;-74
2023/12/26 21:18:07;;;;;;;104.95;96.47;;;10.10;87.00;;;;;;12654293;28;20032;-74
2023/12/26 21:24:08;;;;;;;69.07;62.60;;;10.20;86.70;;;;;;12653490;28;20039;-74
2023/12/26 21:30:11;;;;;;;97.82;90.53;;;10.20;86.80;;;;;;12654007;28;20028;-71
2023/12/26 21:36:17;;;;;;;125.45;116.95;;;10.20;86.70;;;;;;12653800;28;20317;-71
2023/12/26 21:42:22;;;;;;;134.10;124.60;;;10.20;86.60;;;;;;12653765;28;20055;-72
2023/12/26 21:48:26;;;;;;;112.68;103.97;;;10.10;86.90;;;;;;12635598;28;20051;-72
2023/12/26 21:54:28;;;;;;;115.75;107.28;;;10.20;86.80;;;;;;12653400;28;20031;-72
2023/12/26 22:00:30;;;;;;;99.47;91.65;;;10.20;86.50;;;;;;12635414;28;20047;-72
2023/12/26 22:06:32;;;;;;;125.47;115.95;;;10.20;86.50;;;;;;12635758;28;20043;-72
2023/12/26 22:12:40;;;;;;;131.25;121.85;;;10.20;86.70;;;;;;12652936;28;20456;-72
2023/12/26 22:18:56;;;;;;;100.68;92.07;;;10.10;86.70;;;;;;12652934;28;20440;-72
2023/12/26 22:24:58;;;;;;;145.35;134.23;;;10.20;87.00;;;;;;12652747;28;20036;-71
2023/12/26 22:31:02;;;;;;;107.65;98.53;;;10.20;86.80;;;;;;12635786;28;20040;-72
2023/12/26 22:37:21;;;;;;;112.30;102.22;;;10.30;86.70;;;;;;12661545;28;20024;-72
2023/12/26 22:43:37;;;;;;;123.45;114.05;;;10.20;86.60;;;;;;12645232;28;20044;-72
2023/12/26 22:49:39;;;;;;;152.05;140.43;;;10.20;86.60;;;;;;12659849;28;20356;-72
2023/12/26 22:56:00;;;;;;;151.65;139.48;;;10.20;86.60;;;;;;12666711;22;20063;-72
2023/12/26 23:02:02;;;;;;;145.38;134.57;;;10.20;86.60;;;;;;12660566;28;20392;-72
2023/12/26 23:08:03;;;;;;;98.97;89.28;;;10.30;86.50;;;;;;12660061;28;20035;-72
2023/12/26 23:14:05;;;;;;;109.88;101.10;;;10.20;86.50;;;;;;12659718;28;20040;-72
2023/12/26 23:20:08;;;;;;;103.38;94.25;;;10.20;86.50;;;;;;12659516;28;20024;-72
2023/12/26 23:26:28;;;;;;;115.47;105.75;;;10.20;86.40;;;;;;12659198;28;20348;-74
2023/12/26 23:32:29;;;;;;;114.90;105.68;;;10.20;86.60;;;;;;12658755;28;20055;-75
2023/12/26 23:38:32;;;;;;;89.32;81.63;;;10.20;86.50;;;;;;12658628;28;20039;-75
2023/12/26 23:44:35;;;;;;;84.70;77.07;;;10.20;86.70;;;;;;12639887;28;20032;-75
2023/12/26 23:50:36;;;;;;;90.72;83.15;;;10.10;86.60;;;;;;12658015;28;20036;-74
2023/12/26 23:56:38;;;;;;;63.80;57.25;;;9.90;86.80;;;;;;12657567;28;20449;-75
